EPZGEPSC

Guest
Details From EPZG - ZIELONA GORA BABIMOST
To EPSC - GOLENIOW
Flight Number -
Tags generated
Created
Modified
Stats Distance 94 nm / 174 km
Max Altitude 2,600 ft / 792 m
Waypoints 3
Social Downloads 0
Likes 0
Share VATSIM

Download

Looking for another format? Having issues loading an existing format? Contact us
Advertisement - Login to hide

Notes

Basic altitude profile: - Ascent Rate: 6000ft/min - Ascent Speed: 80kts - Cruise Altitude: 35000ft - Cruise Speed: 120kts - Descent Rate: 1500ft/min - Descent Speed: 250kts Options: - Use NATs: yes - Use PACOTS: yes - Use low airways: yes - Use high airways: no

Route

EPZG ROVEK EPSC

ID Type Via Altitude Latitude Longitude Leg Dist Tot Dist Heading (true) Name
O EPZG APT - 0 ft / 0 m 52.13863˚ 15.79840˚ - 0 nm - ZIELONA GORA BABIMOST
ROVEK FIX - 2,600 ft / 792 m 53.37889˚ 14.88167˚ 81 nm 81 nm 336° / 336° -
O EPSC APT - 0 ft / 0 m 53.58473˚ 14.90220˚ 12 nm 93 nm 3° / 3° GOLENIOW

Altitude Profile

Advertisement - Login to hide

EPZG

Details ICAO EPZG (IEG)
Name ZIELONA GORA BABIMOST
Region Poland
Timezone Europe/Warsaw (UTC+1.0)
Stats Elevation 193 ft / 59 m (AMSL)
Location 52.138633° 15.798400°
Runways 1
Magnetic Variation 4.426° E

METAR

EPZG 150100Z 17004KT 130V200 9999 BKN044 02/01 Q0994

Decode

TAF

Not found

Departure Runways

ID Width Length Bearing (true) Bearing (mag) Surface Threshold Offset Overrun Length
06 197 ft / 60 m 8,169 ft / 2,490 m 64.50° 60.07° Concrete 0 ft / 0 m 0 ft / 0 m
24 197 ft / 60 m 8,169 ft / 2,490 m 244.52° 240.09° Concrete 0 ft / 0 m 0 ft / 0 m

EPSC

Details ICAO EPSC (SZZ)
Name GOLENIOW
Region Poland
Timezone Europe/Warsaw (UTC+1.0)
Stats Elevation 154 ft / 47 m (AMSL)
Location 53.584731° 14.902195°
Runways 1
Magnetic Variation 4.298° E

METAR

EPSC 150100Z 18005KT 150V220 9999 FEW009 SCT023 BKN027 01/00 Q0991

Decode

TAF

TAF EPSC 142330Z 1500/1524 18010KT 9999 SCT010 BKN017 BECMG 1502/1505 4000 BR BKN006 PROB40 1504/1509 1500 BR BKN002 BECMG 1511/1514 25005KT 6000 BKN015

Decode

Destination Runways

ID Width Length Bearing (true) Bearing (mag) Surface Threshold Offset Overrun Length
13 197 ft / 60 m 8,187 ft / 2,495 m 130.94° 126.64° Concrete 0 ft / 0 m 0 ft / 0 m
31 197 ft / 60 m 8,187 ft / 2,495 m 310.96° 306.66° Concrete 0 ft / 0 m 0 ft / 0 m

Approach Navaids

Runway Type Ident Frequency Range Bearing (true) Bearing (mag) Slope Elevation
31 Localiser SZC 110.50 MHz 18 nm / 33 km 310.93° 306.64° - 154 ft / 47 m (AMSL)
31 Glidescope SZC 110.50 MHz 10 nm / 19 km 310.95° 306.65° 3.00° 154 ft / 47 m (AMSL)
31 DME SZC 110.50 MHz 18 nm / 33 km - - - 197 ft / 60 m (AMSL)

Popular Alternatives